sensor_id;sensor_type;location;lat;lon;timestamp;P1;durP1;ratioP1;P2;durP2;ratioP2
33902;SDS011;20194;50.950;5.346;2023-04-15T00:01:31;8.48;;;3.92;;
33902;SDS011;20194;50.950;5.346;2023-04-15T00:03:58;8.70;;;4.00;;
33902;SDS011;20194;50.950;5.346;2023-04-15T00:06:24;14.27;;;4.72;;
33902;SDS011;20194;50.950;5.346;2023-04-15T00:08:50;13.35;;;4.72;;
33902;SDS011;20194;50.950;5.346;2023-04-15T00:11:16;8.23;;;3.58;;
33902;SDS011;20194;50.950;5.346;2023-04-15T00:13:42;8.60;;;4.03;;
33902;SDS011;20194;50.950;5.346;2023-04-15T00:16:08;13.00;;;3.97;;
33902;SDS011;20194;50.950;5.346;2023-04-15T00:18:36;7.15;;;3.28;;
33902;SDS011;20194;50.950;5.346;2023-04-15T00:21:03;8.27;;;3.60;;
33902;SDS011;20194;50.950;5.346;2023-04-15T00:23:29;7.15;;;4.07;;
33902;SDS011;20194;50.950;5.346;2023-04-15T00:25:55;5.43;;;3.17;;
33902;SDS011;20194;50.950;5.346;2023-04-15T00:28:21;6.05;;;3.67;;
33902;SDS011;20194;50.950;5.346;2023-04-15T00:30:47;9.48;;;3.60;;
33902;SDS011;20194;50.950;5.346;2023-04-15T00:33:13;10.95;;;3.72;;
33902;SDS011;20194;50.950;5.346;2023-04-15T00:35:40;9.77;;;4.00;;
33902;SDS011;20194;50.950;5.346;2023-04-15T00:38:06;6.75;;;2.92;;
33902;SDS011;20194;50.950;5.346;2023-04-15T00:40:34;8.02;;;3.30;;
33902;SDS011;20194;50.950;5.346;2023-04-15T00:43:00;11.30;;;4.15;;
33902;SDS011;20194;50.950;5.346;2023-04-15T00:45:27;5.85;;;3.17;;
33902;SDS011;20194;50.950;5.346;2023-04-15T00:47:54;6.93;;;3.50;;
33902;SDS011;20194;50.950;5.346;2023-04-15T00:50:19;7.90;;;4.28;;
33902;SDS011;20194;50.950;5.346;2023-04-15T00:52:45;9.15;;;3.50;;
33902;SDS011;20194;50.950;5.346;2023-04-15T00:55:11;7.13;;;3.22;;
33902;SDS011;20194;50.950;5.346;2023-04-15T00:57:38;8.23;;;3.10;;
33902;SDS011;20194;50.950;5.346;2023-04-15T01:00:04;6.55;;;3.50;;
33902;SDS011;20194;50.950;5.346;2023-04-15T01:02:33;8.23;;;3.60;;
33902;SDS011;20194;50.950;5.346;2023-04-15T01:04:59;11.10;;;3.00;;
33902;SDS011;20194;50.950;5.346;2023-04-15T01:07:25;7.93;;;3.33;;
33902;SDS011;20194;50.950;5.346;2023-04-15T01:09:51;9.02;;;3.28;;
33902;SDS011;20194;50.950;5.346;2023-04-15T01:12:17;6.35;;;2.83;;
33902;SDS011;20194;50.950;5.346;2023-04-15T01:14:44;7.13;;;3.35;;
33902;SDS011;20194;50.950;5.346;2023-04-15T01:17:10;6.30;;;3.15;;
33902;SDS011;20194;50.950;5.346;2023-04-15T01:19:37;6.85;;;2.85;;
33902;SDS011;20194;50.950;5.346;2023-04-15T01:22:03;8.40;;;3.10;;
33902;SDS011;20194;50.950;5.346;2023-04-15T01:24:30;10.02;;;3.60;;
33902;SDS011;20194;50.950;5.346;2023-04-15T01:26:57;10.65;;;3.33;;
33902;SDS011;20194;50.950;5.346;2023-04-15T01:29:23;11.48;;;4.05;;
33902;SDS011;20194;50.950;5.346;2023-04-15T01:31:52;7.80;;;4.05;;
33902;SDS011;20194;50.950;5.346;2023-04-15T01:34:18;12.48;;;3.75;;
33902;SDS011;20194;50.950;5.346;2023-04-15T01:36:44;11.45;;;3.67;;
33902;SDS011;20194;50.950;5.346;2023-04-15T01:39:11;9.93;;;3.70;;
33902;SDS011;20194;50.950;5.346;2023-04-15T01:41:37;10.38;;;3.45;;
33902;SDS011;20194;50.950;5.346;2023-04-15T01:44:04;11.82;;;3.42;;
33902;SDS011;20194;50.950;5.346;2023-04-15T01:46:31;6.15;;;3.00;;
33902;SDS011;20194;50.950;5.346;2023-04-15T01:48:56;6.13;;;2.95;;
33902;SDS011;20194;50.950;5.346;2023-04-15T01:51:22;7.53;;;3.17;;
33902;SDS011;20194;50.950;5.346;2023-04-15T01:53:48;9.05;;;3.75;;
33902;SDS011;20194;50.950;5.346;2023-04-15T01:56:13;7.22;;;3.08;;
33902;SDS011;20194;50.950;5.346;2023-04-15T01:58:40;6.05;;;2.97;;
33902;SDS011;20194;50.950;5.346;2023-04-15T02:01:05;9.80;;;3.42;;
33902;SDS011;20194;50.950;5.346;2023-04-15T02:03:31;5.25;;;2.78;;
33902;SDS011;20194;50.950;5.346;2023-04-15T02:05:58;7.68;;;3.70;;
33902;SDS011;20194;50.950;5.346;2023-04-15T02:08:24;6.75;;;2.90;;
33902;SDS011;20194;50.950;5.346;2023-04-15T02:10:49;6.20;;;3.28;;
33902;SDS011;20194;50.950;5.346;2023-04-15T02:13:15;7.88;;;4.20;;
33902;SDS011;20194;50.950;5.346;2023-04-15T02:15:45;10.43;;;3.75;;
33902;SDS011;20194;50.950;5.346;2023-04-15T02:18:16;5.30;;;3.00;;
33902;SDS011;20194;50.950;5.346;2023-04-15T02:20:42;7.18;;;3.05;;
33902;SDS011;20194;50.950;5.346;2023-04-15T02:23:08;11.25;;;3.20;;
33902;SDS011;20194;50.950;5.346;2023-04-15T02:25:33;8.63;;;3.42;;
33902;SDS011;20194;50.950;5.346;2023-04-15T02:27:59;10.75;;;3.60;;
33902;SDS011;20194;50.950;5.346;2023-04-15T02:30:25;9.13;;;3.50;;
33902;SDS011;20194;50.950;5.346;2023-04-15T02:32:51;6.53;;;3.28;;
33902;SDS011;20194;50.950;5.346;2023-04-15T02:35:16;10.55;;;3.42;;
33902;SDS011;20194;50.950;5.346;2023-04-15T02:37:45;14.85;;;4.28;;
33902;SDS011;20194;50.950;5.346;2023-04-15T02:40:11;5.40;;;2.88;;
33902;SDS011;20194;50.950;5.346;2023-04-15T02:42:37;9.05;;;3.33;;
33902;SDS011;20194;50.950;5.346;2023-04-15T02:45:05;7.55;;;3.83;;
33902;SDS011;20194;50.950;5.346;2023-04-15T02:47:31;10.50;;;3.58;;
33902;SDS011;20194;50.950;5.346;2023-04-15T02:49:58;6.10;;;3.13;;
33902;SDS011;20194;50.950;5.346;2023-04-15T02:52:25;7.38;;;3.28;;
33902;SDS011;20194;50.950;5.346;2023-04-15T02:54:51;8.43;;;3.53;;
33902;SDS011;20194;50.950;5.346;2023-04-15T02:57:21;9.70;;;2.90;;
33902;SDS011;20194;50.950;5.346;2023-04-15T02:59:47;11.30;;;3.90;;
33902;SDS011;20194;50.950;5.346;2023-04-15T03:02:12;15.68;;;4.60;;
33902;SDS011;20194;50.950;5.346;2023-04-15T03:04:38;8.25;;;3.58;;
33902;SDS011;20194;50.950;5.346;2023-04-15T03:07:04;7.53;;;3.28;;
33902;SDS011;20194;50.950;5.346;2023-04-15T03:09:29;12.35;;;4.00;;
33902;SDS011;20194;50.950;5.346;2023-04-15T03:11:55;8.65;;;3.80;;
33902;SDS011;20194;50.950;5.346;2023-04-15T03:14:21;7.47;;;3.90;;
33902;SDS011;20194;50.950;5.346;2023-04-15T03:16:46;5.72;;;3.30;;
33902;SDS011;20194;50.950;5.346;2023-04-15T03:19:14;11.60;;;3.78;;
33902;SDS011;20194;50.950;5.346;2023-04-15T03:21:40;10.10;;;3.42;;
33902;SDS011;20194;50.950;5.346;2023-04-15T03:24:06;5.47;;;3.22;;
33902;SDS011;20194;50.950;5.346;2023-04-15T03:26:32;7.93;;;3.20;;
33902;SDS011;20194;50.950;5.346;2023-04-15T03:28:58;9.00;;;3.83;;
33902;SDS011;20194;50.950;5.346;2023-04-15T03:31:23;5.60;;;3.65;;
33902;SDS011;20194;50.950;5.346;2023-04-15T03:33:49;10.27;;;4.00;;
33902;SDS011;20194;50.950;5.346;2023-04-15T03:36:15;6.53;;;3.50;;
33902;SDS011;20194;50.950;5.346;2023-04-15T03:38:41;11.05;;;3.60;;
33902;SDS011;20194;50.950;5.346;2023-04-15T03:41:07;8.13;;;3.92;;
33902;SDS011;20194;50.950;5.346;2023-04-15T03:43:33;10.43;;;4.13;;
33902;SDS011;20194;50.950;5.346;2023-04-15T03:45:59;7.85;;;3.80;;
33902;SDS011;20194;50.950;5.346;2023-04-15T03:48:25;8.25;;;3.58;;
33902;SDS011;20194;50.950;5.346;2023-04-15T03:50:51;6.22;;;3.35;;
33902;SDS011;20194;50.950;5.346;2023-04-15T03:53:17;7.68;;;3.72;;
33902;SDS011;20194;50.950;5.346;2023-04-15T03:55:43;7.07;;;3.63;;
33902;SDS011;20194;50.950;5.346;2023-04-15T03:58:08;12.20;;;4.07;;
33902;SDS011;20194;50.950;5.346;2023-04-15T04:00:37;6.53;;;3.42;;
33902;SDS011;20194;50.950;5.346;2023-04-15T04:03:03;8.25;;;3.92;;
33902;SDS011;20194;50.950;5.346;2023-04-15T04:05:29;8.10;;;3.60;;
33902;SDS011;20194;50.950;5.346;2023-04-15T04:07:55;9.77;;;3.60;;
33902;SDS011;20194;50.950;5.346;2023-04-15T04:10:21;9.93;;;3.85;;
33902;SDS011;20194;50.950;5.346;2023-04-15T04:12:46;6.15;;;3.17;;
33902;SDS011;20194;50.950;5.346;2023-04-15T04:15:12;9.82;;;3.70;;
33902;SDS011;20194;50.950;5.346;2023-04-15T04:17:38;7.95;;;3.35;;
33902;SDS011;20194;50.950;5.346;2023-04-15T04:20:04;9.77;;;3.60;;
33902;SDS011;20194;50.950;5.346;2023-04-15T04:22:35;8.32;;;3.55;;
33902;SDS011;20194;50.950;5.346;2023-04-15T04:25:05;7.20;;;3.50;;
33902;SDS011;20194;50.950;5.346;2023-04-15T04:27:32;7.78;;;3.53;;
33902;SDS011;20194;50.950;5.346;2023-04-15T04:29:58;10.15;;;4.57;;
33902;SDS011;20194;50.950;5.346;2023-04-15T04:32:24;7.78;;;4.07;;
33902;SDS011;20194;50.950;5.346;2023-04-15T04:34:50;7.13;;;3.53;;
33902;SDS011;20194;50.950;5.346;2023-04-15T04:37:16;6.03;;;3.17;;
33902;SDS011;20194;50.950;5.346;2023-04-15T04:39:41;9.00;;;4.03;;
33902;SDS011;20194;50.950;5.346;2023-04-15T04:42:07;8.98;;;3.55;;
33902;SDS011;20194;50.950;5.346;2023-04-15T04:44:33;7.32;;;3.33;;
33902;SDS011;20194;50.950;5.346;2023-04-15T04:46:59;5.35;;;2.80;;
33902;SDS011;20194;50.950;5.346;2023-04-15T04:49:25;11.75;;;3.30;;
33902;SDS011;20194;50.950;5.346;2023-04-15T04:51:50;7.40;;;3.40;;
33902;SDS011;20194;50.950;5.346;2023-04-15T04:54:16;7.70;;;3.38;;
33902;SDS011;20194;50.950;5.346;2023-04-15T04:56:42;9.52;;;3.67;;
33902;SDS011;20194;50.950;5.346;2023-04-15T04:59:08;10.20;;;3.83;;
33902;SDS011;20194;50.950;5.346;2023-04-15T05:01:34;7.18;;;3.53;;
33902;SDS011;20194;50.950;5.346;2023-04-15T05:03:59;10.35;;;4.15;;
33902;SDS011;20194;50.950;5.346;2023-04-15T05:06:25;9.77;;;4.10;;
33902;SDS011;20194;50.950;5.346;2023-04-15T05:08:51;13.13;;;3.95;;
33902;SDS011;20194;50.950;5.346;2023-04-15T05:11:17;21.67;;;4.38;;
33902;SDS011;20194;50.950;5.346;2023-04-15T05:13:43;7.05;;;3.83;;
33902;SDS011;20194;50.950;5.346;2023-04-15T05:16:08;7.53;;;3.88;;
33902;SDS011;20194;50.950;5.346;2023-04-15T05:18:34;13.27;;;4.05;;
33902;SDS011;20194;50.950;5.346;2023-04-15T05:21:00;11.77;;;4.53;;
33902;SDS011;20194;50.950;5.346;2023-04-15T05:23:26;13.15;;;4.63;;
33902;SDS011;20194;50.950;5.346;2023-04-15T05:25:53;9.63;;;4.25;;
33902;SDS011;20194;50.950;5.346;2023-04-15T05:28:19;13.95;;;4.50;;
33902;SDS011;20194;50.950;5.346;2023-04-15T05:30:45;9.32;;;3.70;;
33902;SDS011;20194;50.950;5.346;2023-04-15T05:33:10;11.20;;;4.57;;
33902;SDS011;20194;50.950;5.346;2023-04-15T05:35:36;13.95;;;4.38;;
33902;SDS011;20194;50.950;5.346;2023-04-15T05:38:02;15.85;;;4.53;;
33902;SDS011;20194;50.950;5.346;2023-04-15T05:40:29;10.60;;;4.68;;
33902;SDS011;20194;50.950;5.346;2023-04-15T05:42:55;9.23;;;4.15;;
33902;SDS011;20194;50.950;5.346;2023-04-15T05:45:21;10.60;;;4.70;;
33902;SDS011;20194;50.950;5.346;2023-04-15T05:47:46;13.15;;;4.03;;
33902;SDS011;20194;50.950;5.346;2023-04-15T05:50:14;21.10;;;4.88;;
33902;SDS011;20194;50.950;5.346;2023-04-15T05:52:40;12.23;;;4.60;;
33902;SDS011;20194;50.950;5.346;2023-04-15T05:55:06;8.52;;;4.15;;
33902;SDS011;20194;50.950;5.346;2023-04-15T05:57:32;15.00;;;4.53;;
33902;SDS011;20194;50.950;5.346;2023-04-15T05:59:58;14.35;;;4.82;;
33902;SDS011;20194;50.950;5.346;2023-04-15T06:02:23;11.43;;;4.07;;
33902;SDS011;20194;50.950;5.346;2023-04-15T06:04:50;7.10;;;4.45;;
33902;SDS011;20194;50.950;5.346;2023-04-15T06:07:16;15.70;;;5.68;;
33902;SDS011;20194;50.950;5.346;2023-04-15T06:09:42;13.45;;;5.43;;
33902;SDS011;20194;50.950;5.346;2023-04-15T06:12:08;14.93;;;5.03;;
33902;SDS011;20194;50.950;5.346;2023-04-15T06:14:36;13.27;;;5.32;;
33902;SDS011;20194;50.950;5.346;2023-04-15T06:17:03;20.05;;;6.07;;
33902;SDS011;20194;50.950;5.346;2023-04-15T06:19:28;34.50;;;7.18;;
33902;SDS011;20194;50.950;5.346;2023-04-15T06:21:54;15.15;;;5.80;;
33902;SDS011;20194;50.950;5.346;2023-04-15T06:24:20;16.80;;;5.63;;
33902;SDS011;20194;50.950;5.346;2023-04-15T06:26:45;24.15;;;5.78;;
33902;SDS011;20194;50.950;5.346;2023-04-15T06:29:11;15.13;;;4.25;;
33902;SDS011;20194;50.950;5.346;2023-04-15T06:31:37;11.38;;;5.82;;
33902;SDS011;20194;50.950;5.346;2023-04-15T06:34:02;12.18;;;5.72;;
33902;SDS011;20194;50.950;5.346;2023-04-15T06:36:28;14.98;;;5.10;;
33902;SDS011;20194;50.950;5.346;2023-04-15T06:38:54;18.65;;;5.85;;
33902;SDS011;20194;50.950;5.346;2023-04-15T06:41:21;13.27;;;5.82;;
33902;SDS011;20194;50.950;5.346;2023-04-15T06:43:47;16.40;;;6.35;;
33902;SDS011;20194;50.950;5.346;2023-04-15T06:46:13;12.90;;;5.60;;
33902;SDS011;20194;50.950;5.346;2023-04-15T06:48:38;14.52;;;5.63;;
33902;SDS011;20194;50.950;5.346;2023-04-15T06:51:04;10.85;;;5.47;;
33902;SDS011;20194;50.950;5.346;2023-04-15T06:53:30;9.18;;;5.40;;
33902;SDS011;20194;50.950;5.346;2023-04-15T06:55:56;11.77;;;7.15;;
33902;SDS011;20194;50.950;5.346;2023-04-15T06:58:23;18.98;;;6.25;;
33902;SDS011;20194;50.950;5.346;2023-04-15T07:00:48;15.45;;;6.45;;
33902;SDS011;20194;50.950;5.346;2023-04-15T07:03:14;17.92;;;6.05;;
33902;SDS011;20194;50.950;5.346;2023-04-15T07:05:40;14.05;;;5.97;;
33902;SDS011;20194;50.950;5.346;2023-04-15T07:08:05;24.75;;;6.35;;
33902;SDS011;20194;50.950;5.346;2023-04-15T07:10:34;14.40;;;5.68;;
33902;SDS011;20194;50.950;5.346;2023-04-15T07:13:01;14.65;;;5.63;;
33902;SDS011;20194;50.950;5.346;2023-04-15T07:15:26;16.27;;;6.22;;
33902;SDS011;20194;50.950;5.346;2023-04-15T07:17:52;15.05;;;6.85;;
33902;SDS011;20194;50.950;5.346;2023-04-15T07:20:18;14.30;;;5.85;;
33902;SDS011;20194;50.950;5.346;2023-04-15T07:22:44;15.32;;;5.72;;
33902;SDS011;20194;50.950;5.346;2023-04-15T07:25:10;9.75;;;5.65;;
33902;SDS011;20194;50.950;5.346;2023-04-15T07:27:36;16.08;;;5.90;;
33902;SDS011;20194;50.950;5.346;2023-04-15T07:30:02;17.48;;;4.85;;
33902;SDS011;20194;50.950;5.346;2023-04-15T07:32:28;14.20;;;5.53;;
33902;SDS011;20194;50.950;5.346;2023-04-15T07:34:53;15.85;;;4.93;;
33902;SDS011;20194;50.950;5.346;2023-04-15T07:37:20;9.75;;;5.20;;
33902;SDS011;20194;50.950;5.346;2023-04-15T07:39:46;9.82;;;5.35;;
33902;SDS011;20194;50.950;5.346;2023-04-15T07:42:12;13.93;;;5.70;;
33902;SDS011;20194;50.950;5.346;2023-04-15T07:44:37;13.63;;;5.30;;
33902;SDS011;20194;50.950;5.346;2023-04-15T07:47:03;11.75;;;5.03;;
33902;SDS011;20194;50.950;5.346;2023-04-15T07:49:28;12.98;;;5.82;;
33902;SDS011;20194;50.950;5.346;2023-04-15T07:51:54;8.20;;;5.47;;
33902;SDS011;20194;50.950;5.346;2023-04-15T07:54:21;15.80;;;5.80;;
33902;SDS011;20194;50.950;5.346;2023-04-15T07:56:47;14.02;;;5.40;;
33902;SDS011;20194;50.950;5.346;2023-04-15T07:59:12;11.35;;;5.00;;
33902;SDS011;20194;50.950;5.346;2023-04-15T08:01:42;12.05;;;6.20;;
33902;SDS011;20194;50.950;5.346;2023-04-15T08:04:08;13.27;;;6.57;;
33902;SDS011;20194;50.950;5.346;2023-04-15T08:06:34;10.25;;;6.38;;
33902;SDS011;20194;50.950;5.346;2023-04-15T08:09:03;10.50;;;6.40;;
33902;SDS011;20194;50.950;5.346;2023-04-15T08:11:30;12.45;;;7.47;;
33902;SDS011;20194;50.950;5.346;2023-04-15T08:13:56;9.50;;;6.35;;
33902;SDS011;20194;50.950;5.346;2023-04-15T08:16:22;15.20;;;7.88;;
33902;SDS011;20194;50.950;5.346;2023-04-15T08:18:52;12.30;;;6.72;;
33902;SDS011;20194;50.950;5.346;2023-04-15T08:21:19;16.90;;;8.70;;
33902;SDS011;20194;50.950;5.346;2023-04-15T08:23:46;20.10;;;8.98;;
33902;SDS011;20194;50.950;5.346;2023-04-15T08:26:13;19.80;;;8.55;;
33902;SDS011;20194;50.950;5.346;2023-04-15T08:28:39;19.65;;;9.30;;
33902;SDS011;20194;50.950;5.346;2023-04-15T08:31:06;19.20;;;9.13;;
33902;SDS011;20194;50.950;5.346;2023-04-15T08:33:33;15.07;;;7.85;;
33902;SDS011;20194;50.950;5.346;2023-04-15T08:35:59;13.27;;;8.45;;
33902;SDS011;20194;50.950;5.346;2023-04-15T08:38:24;12.25;;;7.60;;
33902;SDS011;20194;50.950;5.346;2023-04-15T08:40:50;19.40;;;7.85;;
33902;SDS011;20194;50.950;5.346;2023-04-15T08:43:26;14.23;;;7.95;;
33902;SDS011;20194;50.950;5.346;2023-04-15T08:45:54;13.95;;;7.80;;
33902;SDS011;20194;50.950;5.346;2023-04-15T08:48:23;12.60;;;7.28;;
33902;SDS011;20194;50.950;5.346;2023-04-15T08:50:52;13.55;;;7.53;;
33902;SDS011;20194;50.950;5.346;2023-04-15T08:53:18;9.23;;;6.75;;
33902;SDS011;20194;50.950;5.346;2023-04-15T08:55:45;16.40;;;7.07;;
33902;SDS011;20194;50.950;5.346;2023-04-15T08:58:15;11.10;;;6.22;;
33902;SDS011;20194;50.950;5.346;2023-04-15T09:00:43;11.30;;;6.50;;
33902;SDS011;20194;50.950;5.346;2023-04-15T09:03:08;16.27;;;6.72;;
33902;SDS011;20194;50.950;5.346;2023-04-15T09:05:34;11.18;;;6.05;;
33902;SDS011;20194;50.950;5.346;2023-04-15T09:08:01;12.82;;;6.10;;
33902;SDS011;20194;50.950;5.346;2023-04-15T09:10:27;9.43;;;5.80;;
33902;SDS011;20194;50.950;5.346;2023-04-15T09:12:54;12.68;;;5.85;;
33902;SDS011;20194;50.950;5.346;2023-04-15T09:15:20;8.40;;;5.35;;
33902;SDS011;20194;50.950;5.346;2023-04-15T09:17:46;8.32;;;5.03;;
33902;SDS011;20194;50.950;5.346;2023-04-15T09:20:13;10.73;;;6.63;;
33902;SDS011;20194;50.950;5.346;2023-04-15T09:22:40;8.45;;;5.63;;
33902;SDS011;20194;50.950;5.346;2023-04-15T09:27:54;8.57;;;5.40;;
33902;SDS011;20194;50.950;5.346;2023-04-15T09:30:22;11.50;;;5.68;;
33902;SDS011;20194;50.950;5.346;2023-04-15T09:32:51;7.10;;;4.95;;
33902;SDS011;20194;50.950;5.346;2023-04-15T09:35:19;8.40;;;5.25;;
33902;SDS011;20194;50.950;5.346;2023-04-15T09:37:46;8.23;;;5.55;;
33902;SDS011;20194;50.950;5.346;2023-04-15T09:40:14;12.95;;;5.78;;
33902;SDS011;20194;50.950;5.346;2023-04-15T09:42:56;8.98;;;4.95;;
33902;SDS011;20194;50.950;5.346;2023-04-15T09:45:22;13.20;;;6.43;;
33902;SDS011;20194;50.950;5.346;2023-04-15T09:47:48;8.40;;;5.47;;
33902;SDS011;20194;50.950;5.346;2023-04-15T09:50:20;8.15;;;4.00;;
33902;SDS011;20194;50.950;5.346;2023-04-15T09:52:46;6.95;;;4.93;;
33902;SDS011;20194;50.950;5.346;2023-04-15T09:55:12;7.97;;;4.20;;
33902;SDS011;20194;50.950;5.346;2023-04-15T09:57:39;8.50;;;4.55;;
33902;SDS011;20194;50.950;5.346;2023-04-15T10:00:06;6.00;;;4.20;;
33902;SDS011;20194;50.950;5.346;2023-04-15T10:02:35;6.88;;;3.80;;
33902;SDS011;20194;50.950;5.346;2023-04-15T10:05:02;6.97;;;3.75;;
33902;SDS011;20194;50.950;5.346;2023-04-15T10:07:28;6.97;;;4.10;;
33902;SDS011;20194;50.950;5.346;2023-04-15T10:09:54;5.47;;;3.95;;
33902;SDS011;20194;50.950;5.346;2023-04-15T10:12:21;5.47;;;3.53;;
33902;SDS011;20194;50.950;5.346;2023-04-15T10:14:47;6.57;;;3.22;;
33902;SDS011;20194;50.950;5.346;2023-04-15T10:17:17;5.25;;;3.50;;
33902;SDS011;20194;50.950;5.346;2023-04-15T10:19:46;6.30;;;3.42;;
33902;SDS011;20194;50.950;5.346;2023-04-15T10:22:13;3.85;;;2.47;;
33902;SDS011;20194;50.950;5.346;2023-04-15T10:24:39;4.53;;;2.40;;
33902;SDS011;20194;50.950;5.346;2023-04-15T10:27:05;3.83;;;2.30;;
33902;SDS011;20194;50.950;5.346;2023-04-15T10:29:32;5.82;;;2.35;;
33902;SDS011;20194;50.950;5.346;2023-04-15T10:31:58;3.20;;;2.30;;
33902;SDS011;20194;50.950;5.346;2023-04-15T10:34:25;5.28;;;3.10;;
33902;SDS011;20194;50.950;5.346;2023-04-15T10:36:55;7.97;;;3.00;;
33902;SDS011;20194;50.950;5.346;2023-04-15T10:39:38;4.55;;;2.33;;
33902;SDS011;20194;50.950;5.346;2023-04-15T10:42:16;3.70;;;2.45;;
33902;SDS011;20194;50.950;5.346;2023-04-15T10:44:50;7.03;;;2.47;;
33902;SDS011;20194;50.950;5.346;2023-04-15T10:47:20;5.95;;;2.83;;
33902;SDS011;20194;50.950;5.346;2023-04-15T10:49:47;5.35;;;3.45;;
33902;SDS011;20194;50.950;5.346;2023-04-15T10:52:16;5.20;;;3.00;;
33902;SDS011;20194;50.950;5.346;2023-04-15T10:54:46;5.68;;;3.28;;
33902;SDS011;20194;50.950;5.346;2023-04-15T10:57:14;5.45;;;3.40;;
33902;SDS011;20194;50.950;5.346;2023-04-15T11:02:39;5.85;;;3.63;;
33902;SDS011;20194;50.950;5.346;2023-04-15T11:05:10;7.18;;;3.60;;
33902;SDS011;20194;50.950;5.346;2023-04-15T11:12:42;7.70;;;3.15;;
33902;SDS011;20194;50.950;5.346;2023-04-15T11:20:41;4.20;;;2.85;;
33902;SDS011;20194;50.950;5.346;2023-04-15T11:23:12;4.22;;;3.10;;
33902;SDS011;20194;50.950;5.346;2023-04-15T11:25:39;5.43;;;3.17;;
33902;SDS011;20194;50.950;5.346;2023-04-15T11:28:05;5.75;;;3.25;;
33902;SDS011;20194;50.950;5.346;2023-04-15T11:30:34;4.55;;;3.13;;
33902;SDS011;20194;50.950;5.346;2023-04-15T11:33:02;6.60;;;2.15;;
33902;SDS011;20194;50.950;5.346;2023-04-15T11:35:29;6.70;;;2.88;;
33902;SDS011;20194;50.950;5.346;2023-04-15T11:37:56;3.30;;;2.30;;
33902;SDS011;20194;50.950;5.346;2023-04-15T11:40:27;5.25;;;2.65;;
33902;SDS011;20194;50.950;5.346;2023-04-15T11:43:03;2.58;;;2.35;;
33902;SDS011;20194;50.950;5.346;2023-04-15T11:45:34;4.15;;;2.28;;
33902;SDS011;20194;50.950;5.346;2023-04-15T11:48:10;3.88;;;2.30;;
33902;SDS011;20194;50.950;5.346;2023-04-15T11:50:37;3.03;;;1.95;;
33902;SDS011;20194;50.950;5.346;2023-04-15T11:53:08;1.77;;;1.30;;
33902;SDS011;20194;50.950;5.346;2023-04-15T11:58:23;1.77;;;1.27;;
33902;SDS011;20194;50.950;5.346;2023-04-15T12:00:54;3.20;;;1.80;;
33902;SDS011;20194;50.950;5.346;2023-04-15T12:03:28;3.95;;;1.92;;
33902;SDS011;20194;50.950;5.346;2023-04-15T12:06:10;2.25;;;1.70;;
33902;SDS011;20194;50.950;5.346;2023-04-15T12:08:48;1.85;;;1.70;;
33902;SDS011;20194;50.950;5.346;2023-04-15T12:11:41;3.13;;;1.42;;
33902;SDS011;20194;50.950;5.346;2023-04-15T12:16:41;1.60;;;1.38;;
33902;SDS011;20194;50.950;5.346;2023-04-15T12:19:11;3.30;;;1.70;;
33902;SDS011;20194;50.950;5.346;2023-04-15T12:21:39;2.03;;;1.77;;
33902;SDS011;20194;50.950;5.346;2023-04-15T12:24:07;3.28;;;2.58;;
33902;SDS011;20194;50.950;5.346;2023-04-15T12:26:41;4.75;;;2.00;;
33902;SDS011;20194;50.950;5.346;2023-04-15T12:29:15;2.92;;;2.35;;
33902;SDS011;20194;50.950;5.346;2023-04-15T12:31:48;3.00;;;2.42;;
33902;SDS011;20194;50.950;5.346;2023-04-15T12:34:16;3.55;;;2.40;;
33902;SDS011;20194;50.950;5.346;2023-04-15T12:36:43;3.45;;;1.52;;
33902;SDS011;20194;50.950;5.346;2023-04-15T12:39:09;3.47;;;1.30;;
33902;SDS011;20194;50.950;5.346;2023-04-15T12:41:35;1.58;;;1.38;;
33902;SDS011;20194;50.950;5.346;2023-04-15T12:44:00;1.35;;;1.23;;
33902;SDS011;20194;50.950;5.346;2023-04-15T12:46:27;4.47;;;1.70;;
33902;SDS011;20194;50.950;5.346;2023-04-15T12:48:52;2.10;;;1.63;;
33902;SDS011;20194;50.950;5.346;2023-04-15T12:51:18;2.92;;;1.52;;
33902;SDS011;20194;50.950;5.346;2023-04-15T12:53:47;1.85;;;1.23;;
33902;SDS011;20194;50.950;5.346;2023-04-15T12:56:13;5.40;;;1.80;;
33902;SDS011;20194;50.950;5.346;2023-04-15T12:58:40;4.32;;;1.83;;
33902;SDS011;20194;50.950;5.346;2023-04-15T13:01:07;2.97;;;1.55;;
33902;SDS011;20194;50.950;5.346;2023-04-15T13:03:32;2.90;;;1.38;;
33902;SDS011;20194;50.950;5.346;2023-04-15T13:05:58;3.60;;;2.10;;
33902;SDS011;20194;50.950;5.346;2023-04-15T13:08:26;4.57;;;1.70;;
33902;SDS011;20194;50.950;5.346;2023-04-15T13:10:52;3.10;;;1.85;;
33902;SDS011;20194;50.950;5.346;2023-04-15T13:13:17;3.17;;;1.88;;
33902;SDS011;20194;50.950;5.346;2023-04-15T13:15:43;1.48;;;1.27;;
33902;SDS011;20194;50.950;5.346;2023-04-15T13:18:10;3.53;;;1.50;;
33902;SDS011;20194;50.950;5.346;2023-04-15T13:20:35;2.15;;;1.52;;
33902;SDS011;20194;50.950;5.346;2023-04-15T13:23:01;2.53;;;1.45;;
33902;SDS011;20194;50.950;5.346;2023-04-15T13:25:27;1.60;;;1.20;;
33902;SDS011;20194;50.950;5.346;2023-04-15T13:27:53;1.40;;;1.30;;
33902;SDS011;20194;50.950;5.346;2023-04-15T13:30:19;2.28;;;1.40;;
33902;SDS011;20194;50.950;5.346;2023-04-15T13:32:45;3.10;;;1.20;;
33902;SDS011;20194;50.950;5.346;2023-04-15T13:35:11;1.20;;;1.10;;
33902;SDS011;20194;50.950;5.346;2023-04-15T13:37:37;2.30;;;1.58;;
33902;SDS011;20194;50.950;5.346;2023-04-15T13:40:03;3.50;;;1.98;;
33902;SDS011;20194;50.950;5.346;2023-04-15T13:42:31;4.07;;;1.80;;
33902;SDS011;20194;50.950;5.346;2023-04-15T13:44:57;4.10;;;1.73;;
33902;SDS011;20194;50.950;5.346;2023-04-15T13:47:22;3.20;;;2.03;;
33902;SDS011;20194;50.950;5.346;2023-04-15T13:49:48;2.10;;;1.50;;
33902;SDS011;20194;50.950;5.346;2023-04-15T13:52:14;3.13;;;1.88;;
33902;SDS011;20194;50.950;5.346;2023-04-15T13:54:40;3.70;;;1.73;;
33902;SDS011;20194;50.950;5.346;2023-04-15T13:57:05;1.65;;;1.48;;
33902;SDS011;20194;50.950;5.346;2023-04-15T13:59:34;2.15;;;1.42;;
33902;SDS011;20194;50.950;5.346;2023-04-15T14:02:00;1.63;;;1.23;;
33902;SDS011;20194;50.950;5.346;2023-04-15T14:04:26;1.98;;;1.60;;
33902;SDS011;20194;50.950;5.346;2023-04-15T14:06:52;1.58;;;1.45;;
33902;SDS011;20194;50.950;5.346;2023-04-15T14:09:18;3.97;;;2.00;;
33902;SDS011;20194;50.950;5.346;2023-04-15T14:11:46;2.30;;;1.50;;
33902;SDS011;20194;50.950;5.346;2023-04-15T14:14:11;3.50;;;1.77;;
33902;SDS011;20194;50.950;5.346;2023-04-15T14:16:37;3.75;;;1.83;;
33902;SDS011;20194;50.950;5.346;2023-04-15T14:19:04;2.60;;;1.42;;
33902;SDS011;20194;50.950;5.346;2023-04-15T14:21:30;2.50;;;1.27;;
33902;SDS011;20194;50.950;5.346;2023-04-15T14:23:56;3.30;;;1.33;;
33902;SDS011;20194;50.950;5.346;2023-04-15T14:26:22;2.17;;;1.08;;
33902;SDS011;20194;50.950;5.346;2023-04-15T14:28:48;2.05;;;1.10;;
33902;SDS011;20194;50.950;5.346;2023-04-15T14:31:14;1.42;;;1.08;;
33902;SDS011;20194;50.950;5.346;2023-04-15T14:33:40;2.40;;;1.52;;
33902;SDS011;20194;50.950;5.346;2023-04-15T14:36:06;2.83;;;1.70;;
33902;SDS011;20194;50.950;5.346;2023-04-15T14:38:33;4.72;;;1.48;;
33902;SDS011;20194;50.950;5.346;2023-04-15T14:41:04;3.65;;;1.77;;
33902;SDS011;20194;50.950;5.346;2023-04-15T14:43:33;3.80;;;1.55;;
33902;SDS011;20194;50.950;5.346;2023-04-15T14:45:59;1.90;;;1.60;;
33902;SDS011;20194;50.950;5.346;2023-04-15T14:48:25;2.58;;;1.63;;
33902;SDS011;20194;50.950;5.346;2023-04-15T14:50:51;2.40;;;1.60;;
33902;SDS011;20194;50.950;5.346;2023-04-15T14:53:17;2.90;;;1.50;;
33902;SDS011;20194;50.950;5.346;2023-04-15T14:55:43;4.50;;;1.83;;
33902;SDS011;20194;50.950;5.346;2023-04-15T14:58:10;3.38;;;1.92;;
33902;SDS011;20194;50.950;5.346;2023-04-15T15:00:39;2.38;;;1.70;;
33902;SDS011;20194;50.950;5.346;2023-04-15T15:03:08;3.25;;;1.50;;